METAR AND TAF INFORMATION
METAR FOR KTTN
KTTN 130853Z AUTO 29016G27KT 10SM -RA SCT050 BKN075 OVC100 09/02 A2958 RMK AO2 PK WND 26031/0805 SLP009 P0000 60000 T00890022 53013
KTTN 130753Z AUTO 26013G29KT 10SM -RA FEW038 OVC090 10/03 A2956 RMK AO2 PK WND 26029/0747 RAE06B48 SLP003 P0000 T01000033
KTTN 130653Z AUTO 26014G30KT 10SM -RA SCT037 BKN047 OVC100 11/06 A2955 RMK AO2 PK WND 25030/0645 RAB46 SLP999 P0000 T01110056
KTTN 130829Z 1308/1406 25012G23KT P6SM VCSH FEW025 OVC060
FM131300 26020G32KT P6SM FEW020 OVC035
FM132200 29016G26KT P6SM FEW040

 AIRPORT MAP

 RUNWAY INFORMATION
Runway 06 Runway length 6006 ft Runway width 150 ft
Runway elevation 160 ft Runway displaced threshold 0 ft Runway heading 47
Runway 24 Runway length 6006 ft Runway width 150 ft
Runway elevation 192 ft Runway displaced threshold 0 ft Runway heading 227
Runway 16 Runway length 4800 ft Runway width 150 ft
Runway elevation 212 ft Runway displaced threshold 0 ft Runway heading 146
Runway 34 Runway length 4800 ft Runway width 150 ft
Runway elevation 174 ft Runway displaced threshold 0 ft Runway heading 326

 AIRPORT FREQUENCIES
Type A/D Name PHILADELPH Frequency 123.8 MHZ
Type ASOS Name ASOS Frequency 133.7 MHZ
Type ATIS Name ATIS Frequency 133.7 MHZ
Type CTAF Name CTAF Frequency 120.7 MHZ
Type GND Name GND/CLNC D Frequency 121.9 MHZ
Type OPS Name ARNG OPS Frequency 40.1 MHZ
Type TWR Name TWR Frequency 120.7 MHZ
Type UNIC Name UNICOM Frequency 122.95 MHZ

 AIRPORT NEAR NAVIGATION AIDS
Type VOR-DME Name Yardley Frequency 108200 KHZ
Type NDB Name Trenn Frequency 369 KHZ

-